createdAt,value
2019-02-08T00:01:15.592Z,2.53
2019-02-08T00:03:43.650Z,2.51
2019-02-08T00:06:10.173Z,2.61
2019-02-08T00:08:36.652Z,2.74
2019-02-08T00:11:04.543Z,2.75
2019-02-08T00:13:31.444Z,2.80
2019-02-08T00:15:58.055Z,2.77
2019-02-08T00:18:24.620Z,2.86
2019-02-08T00:20:52.422Z,2.93
2019-02-08T00:23:27.082Z,2.98
2019-02-08T00:25:47.828Z,3.12
2019-02-08T00:28:14.345Z,3.09
2019-02-08T00:30:40.841Z,3.01
2019-02-08T00:33:07.653Z,2.95
2019-02-08T00:35:34.139Z,3.01
2019-02-08T00:38:00.979Z,2.97
2019-02-08T00:40:27.674Z,2.90
2019-02-08T00:42:55.485Z,2.90
2019-02-08T00:45:22.906Z,2.88
2019-02-08T00:47:49.661Z,2.80
2019-02-08T00:50:18.993Z,2.69
2019-02-08T00:52:45.463Z,2.67
2019-02-08T00:55:12.320Z,2.66
2019-02-08T00:57:38.777Z,2.68
2019-02-08T01:00:08.550Z,2.65
2019-02-08T01:02:35.415Z,2.64
2019-02-08T01:05:02.442Z,2.65
2019-02-08T01:07:28.912Z,2.62
2019-02-08T01:09:55.957Z,2.51
2019-02-08T01:12:22.546Z,2.39
2019-02-08T01:14:49.166Z,2.23
2019-02-08T01:17:17.646Z,2.32
2019-02-08T01:19:44.145Z,2.35
2019-02-08T01:22:11.472Z,2.29
2019-02-08T01:24:38.243Z,2.34
2019-02-08T01:27:05.018Z,2.36
2019-02-08T01:29:31.746Z,2.37
2019-02-08T01:31:58.273Z,2.38
2019-02-08T01:34:24.902Z,2.38
2019-02-08T01:36:51.429Z,2.37
2019-02-08T01:39:17.887Z,2.41
2019-02-08T01:41:44.382Z,2.39
2019-02-08T01:44:10.882Z,2.45
2019-02-08T01:46:37.500Z,2.56
2019-02-08T01:49:04.899Z,2.61
2019-02-08T01:51:31.399Z,2.58
2019-02-08T01:53:58.021Z,2.59
2019-02-08T01:56:24.555Z,2.59
2019-02-08T01:58:51.301Z,2.67
2019-02-08T02:01:17.887Z,2.70
2019-02-08T02:03:44.491Z,2.79
2019-02-08T02:06:11.192Z,2.83
2019-02-08T02:08:38.000Z,2.83
2019-02-08T02:11:04.590Z,2.83
2019-02-08T02:13:31.316Z,2.90
2019-02-08T02:15:57.771Z,2.86
2019-02-08T02:18:24.266Z,2.86
2019-02-08T02:20:50.820Z,2.77
2019-02-08T02:23:17.474Z,2.76
2019-02-08T02:25:44.169Z,2.71
2019-02-08T02:28:10.768Z,2.68
2019-02-08T02:30:37.864Z,2.63
2019-02-08T02:33:06.725Z,2.70
2019-02-08T02:35:33.265Z,2.64
2019-02-08T02:38:00.094Z,2.68
2019-02-08T02:40:26.588Z,2.77
2019-02-08T02:42:55.374Z,2.82
2019-02-08T02:45:24.217Z,2.86
2019-02-08T02:47:50.814Z,2.89
2019-02-08T02:50:17.683Z,2.96
2019-02-08T02:52:44.309Z,3.00
2019-02-08T02:55:11.593Z,2.95
2019-02-08T02:57:38.204Z,2.92
2019-02-08T03:00:10.376Z,2.94
2019-02-08T03:02:36.873Z,2.93
2019-02-08T03:05:04.533Z,2.94
2019-02-08T03:07:31.301Z,2.88
2019-02-08T03:09:57.935Z,2.84
2019-02-08T03:12:24.405Z,2.89
2019-02-08T03:14:50.927Z,2.99
2019-02-08T03:17:17.418Z,3.08
2019-02-08T03:19:43.856Z,3.16
2019-02-08T03:22:13.263Z,3.09
2019-02-08T03:24:40.172Z,3.10
2019-02-08T03:27:07.028Z,3.07
2019-02-08T03:29:33.536Z,3.13
2019-02-08T03:32:00.701Z,3.09
2019-02-08T03:34:27.272Z,3.08
2019-02-08T03:36:53.808Z,3.02
2019-02-08T03:39:20.593Z,3.11
2019-02-08T03:41:47.083Z,3.20
2019-02-08T03:44:13.661Z,3.27
2019-02-08T03:46:40.233Z,3.40
2019-02-08T03:49:06.820Z,3.42
2019-02-08T03:51:33.334Z,3.45
2019-02-08T03:53:59.788Z,3.46
2019-02-08T03:56:26.290Z,3.39
2019-02-08T03:58:52.784Z,3.36
2019-02-08T04:01:19.565Z,3.28
2019-02-08T04:03:46.126Z,3.32
2019-02-08T04:06:12.637Z,3.34
2019-02-08T04:08:41.154Z,3.27
2019-02-08T04:11:07.901Z,3.29
2019-02-08T04:13:34.502Z,3.27
2019-02-08T04:16:01.241Z,3.31
2019-02-08T04:18:28.022Z,3.40
2019-02-08T04:20:54.528Z,3.44
2019-02-08T04:23:21.132Z,3.44
2019-02-08T04:25:47.950Z,3.42
2019-02-08T04:28:14.468Z,3.52
2019-02-08T04:30:40.932Z,3.48
2019-02-08T04:33:07.573Z,3.51
2019-02-08T04:35:34.045Z,3.57
2019-02-08T04:38:00.712Z,3.69
2019-02-08T04:40:27.416Z,3.72
2019-02-08T04:42:54.466Z,3.73
2019-02-08T04:45:21.410Z,3.70
2019-02-08T04:47:48.313Z,3.68
2019-02-08T04:50:17.423Z,3.61
2019-02-08T04:52:44.011Z,3.51
2019-02-08T04:55:10.963Z,3.45
2019-02-08T04:57:39.517Z,3.42
2019-02-08T05:00:10.561Z,3.41
2019-02-08T05:02:37.057Z,3.39
2019-02-08T05:05:04.664Z,3.39
2019-02-08T05:07:31.153Z,3.30
2019-02-08T05:09:57.976Z,3.39
2019-02-08T05:12:24.479Z,3.39
2019-02-08T05:14:51.164Z,3.35
2019-02-08T05:17:17.653Z,3.41
2019-02-08T05:19:44.158Z,3.46
2019-02-08T05:22:10.635Z,3.42
2019-02-08T05:24:37.179Z,3.46
2019-02-08T05:27:09.237Z,3.50
2019-02-08T05:29:35.738Z,3.41
2019-02-08T05:32:02.355Z,3.38
2019-02-08T05:34:28.855Z,3.48
2019-02-08T05:36:55.342Z,3.50
2019-02-08T05:39:22.853Z,3.53
2019-02-08T05:41:49.353Z,3.56
2019-02-08T05:44:15.879Z,3.54
2019-02-08T05:46:42.359Z,3.49
2019-02-08T05:49:08.826Z,3.46
2019-02-08T05:51:35.310Z,3.48
2019-02-08T05:54:01.795Z,3.38
2019-02-08T05:56:28.467Z,3.28
2019-02-08T05:58:55.004Z,3.28
2019-02-08T06:01:21.474Z,3.34
2019-02-08T06:03:48.282Z,3.32
2019-02-08T06:06:14.742Z,3.34
2019-02-08T06:08:41.367Z,3.34
2019-02-08T06:11:11.927Z,3.40
2019-02-08T06:13:38.565Z,3.36
2019-02-08T06:16:05.391Z,3.28
2019-02-08T06:18:31.982Z,3.29
2019-02-08T06:20:58.793Z,3.22
2019-02-08T06:23:25.311Z,3.12
2019-02-08T06:25:51.795Z,3.18
2019-02-08T06:28:18.341Z,3.22
2019-02-08T06:30:47.342Z,3.20
2019-02-08T06:33:14.057Z,3.14
2019-02-08T06:35:40.757Z,3.14
2019-02-08T06:38:07.469Z,3.05
2019-02-08T06:40:35.525Z,2.97
2019-02-08T06:43:02.062Z,2.93
2019-02-08T06:45:29.034Z,2.90
2019-02-08T06:47:55.971Z,2.86
2019-02-08T06:50:23.115Z,2.83
2019-02-08T06:52:49.604Z,2.87
2019-02-08T06:55:16.376Z,2.82
2019-02-08T06:58:02.762Z,2.76
2019-02-08T07:00:49.025Z,2.76
2019-02-08T07:03:41.058Z,2.77
2019-02-08T07:06:28.803Z,2.87
2019-02-08T07:09:07.131Z,2.92
2019-02-08T07:11:39.987Z,2.91
2019-02-08T07:14:16.352Z,2.93
2019-02-08T07:17:08.741Z,2.94
2019-02-08T07:20:01.941Z,2.99
2019-02-08T07:22:48.080Z,3.06
2019-02-08T07:25:32.985Z,3.12
2019-02-08T07:28:15.772Z,3.22
2019-02-08T07:30:56.478Z,3.28
2019-02-08T07:33:32.540Z,3.44
2019-02-08T07:36:30.586Z,3.56
2019-02-08T07:39:05.405Z,3.64
2019-02-08T07:41:56.114Z,3.81
2019-02-08T07:44:31.219Z,3.84
2019-02-08T07:47:15.904Z,3.95
2019-02-08T07:50:10.112Z,4.01
2019-02-08T07:52:47.669Z,4.03
2019-02-08T07:55:36.051Z,4.03
2019-02-08T07:58:12.612Z,4.01
2019-02-08T08:00:58.206Z,4.03
2019-02-08T08:03:47.118Z,4.06
2019-02-08T08:06:42.329Z,4.10
2019-02-08T08:09:18.869Z,4.08
2019-02-08T08:11:51.861Z,4.08
2019-02-08T08:14:41.516Z,4.11
2019-02-08T08:17:18.820Z,4.22
2019-02-08T08:20:09.233Z,4.29
2019-02-08T08:22:55.619Z,4.45
2019-02-08T08:25:41.373Z,4.61
2019-02-08T08:28:39.511Z,4.74
2019-02-08T08:31:12.799Z,4.97
2019-02-08T08:33:47.134Z,4.87
2019-02-08T08:36:54.371Z,4.77
2019-02-08T08:39:46.197Z,4.84
2019-02-08T08:42:50.769Z,5.11
2019-02-08T08:45:55.453Z,5.38
2019-02-08T08:48:38.611Z,5.53
2019-02-08T08:51:43.052Z,5.58
2019-02-08T08:54:42.843Z,5.74
2019-02-08T08:58:00.874Z,5.80
2019-02-08T09:01:02.276Z,5.85
2019-02-08T09:04:02.845Z,6.09
2019-02-08T09:06:50.701Z,6.28
2019-02-08T09:09:50.144Z,6.39
2019-02-08T09:12:35.087Z,6.52
2019-02-08T09:15:59.244Z,6.48
2019-02-08T09:19:03.829Z,6.53
2019-02-08T09:22:11.194Z,6.64
2019-02-08T09:25:02.017Z,6.77
2019-02-08T09:28:16.650Z,6.66
2019-02-08T09:31:15.391Z,6.63
2019-02-08T09:34:02.021Z,6.64
2019-02-08T09:37:24.357Z,6.58
2019-02-08T09:40:16.084Z,6.63
2019-02-08T09:43:22.283Z,6.83
2019-02-08T09:46:44.536Z,7.04
2019-02-08T09:49:32.596Z,7.25
2019-02-08T09:52:44.341Z,7.42
2019-02-08T09:55:48.638Z,7.53
2019-02-08T09:58:45.018Z,7.83
2019-02-08T10:02:12.436Z,7.58
2019-02-08T10:05:06.101Z,7.85
2019-02-08T10:08:16.803Z,7.66
2019-02-08T10:11:25.199Z,8.00
2019-02-08T10:14:18.187Z,7.88
2019-02-08T10:17:22.160Z,7.95
2019-02-08T10:20:48.874Z,8.02
2019-02-08T10:23:53.819Z,8.06
2019-02-08T10:27:05.396Z,8.64
2019-02-08T10:30:14.725Z,8.43
2019-02-08T10:33:27.870Z,8.33
2019-02-08T10:36:28.143Z,8.38
2019-02-08T10:39:48.114Z,8.25
2019-02-08T10:43:02.997Z,8.23
2019-02-08T10:45:50.984Z,8.18
2019-02-08T10:48:53.605Z,8.14
2019-02-08T10:51:50.645Z,8.30
2019-02-08T10:54:54.290Z,8.21
2019-02-08T10:58:05.276Z,8.03
2019-02-08T11:01:09.028Z,7.46
2019-02-08T11:04:16.993Z,7.06
2019-02-08T11:07:16.532Z,6.96
2019-02-08T11:10:31.697Z,6.92
2019-02-08T11:13:50.713Z,6.82
2019-02-08T11:16:58.502Z,6.69
2019-02-08T11:19:24.410Z,6.69
2019-02-08T11:21:51.801Z,6.72
2019-02-08T11:24:23.551Z,6.67
2019-02-08T11:26:51.982Z,6.67
2019-02-08T11:29:18.565Z,6.75
2019-02-08T11:31:45.161Z,6.72
2019-02-08T11:34:12.985Z,6.67
2019-02-08T11:36:40.202Z,6.78
2019-02-08T11:39:10.975Z,6.99
2019-02-08T11:41:37.548Z,7.11
2019-02-08T11:44:04.208Z,7.24
2019-02-08T11:46:31.258Z,7.18
2019-02-08T11:48:59.988Z,7.08
2019-02-08T11:51:26.489Z,6.88
2019-02-08T11:53:53.006Z,6.89
2019-02-08T11:56:20.008Z,6.95
2019-02-08T11:58:46.493Z,7.12
2019-02-08T12:01:13.016Z,7.17
2019-02-08T12:03:47.673Z,7.07
2019-02-08T12:06:14.208Z,7.12
2019-02-08T12:08:40.686Z,7.32
2019-02-08T12:11:07.198Z,7.02
2019-02-08T12:13:34.723Z,6.95
2019-02-08T12:16:01.399Z,6.98
2019-02-08T12:18:28.004Z,6.96
2019-02-08T12:20:54.511Z,6.80
2019-02-08T12:23:21.653Z,6.89
2019-02-08T12:25:48.170Z,7.01
2019-02-08T12:28:14.641Z,7.40
2019-02-08T12:30:41.912Z,7.42
2019-02-08T12:33:08.386Z,7.25
2019-02-08T12:35:34.982Z,7.51
2019-02-08T12:38:01.512Z,7.62
2019-02-08T12:40:28.005Z,7.66
2019-02-08T12:42:54.614Z,7.58
2019-02-08T12:45:21.293Z,7.58
2019-02-08T12:47:47.810Z,7.56
2019-02-08T12:50:14.859Z,7.69
2019-02-08T12:52:41.339Z,7.64
2019-02-08T12:55:09.040Z,7.68
2019-02-08T12:57:35.531Z,7.64
2019-02-08T13:00:02.334Z,7.71
2019-02-08T13:02:28.835Z,7.47
2019-02-08T13:04:55.500Z,7.36
2019-02-08T13:07:22.062Z,7.26
2019-02-08T13:09:48.601Z,7.29
2019-02-08T13:12:15.076Z,7.30
2019-02-08T13:14:41.549Z,7.17
2019-02-08T13:17:08.916Z,7.27
2019-02-08T13:19:35.384Z,7.39
2019-02-08T13:22:01.975Z,7.62
2019-02-08T13:24:38.813Z,7.55
2019-02-08T13:27:05.284Z,7.57
2019-02-08T13:29:31.925Z,7.46
2019-02-08T13:31:58.731Z,7.33
2019-02-08T13:34:25.367Z,7.26
2019-02-08T13:36:51.832Z,7.24
2019-02-08T13:39:18.518Z,7.20
2019-02-08T13:41:45.120Z,7.18
2019-02-08T13:44:11.584Z,7.16
2019-02-08T13:46:38.218Z,7.09
2019-02-08T13:49:04.720Z,7.08
2019-02-08T13:51:31.247Z,7.14
2019-02-08T13:53:58.152Z,7.00
2019-02-08T13:56:24.633Z,7.09
2019-02-08T13:58:51.232Z,7.02
2019-02-08T14:01:17.748Z,6.98
2019-02-08T14:03:44.204Z,7.02
2019-02-08T14:06:11.005Z,6.95
2019-02-08T14:08:38.249Z,6.92
2019-02-08T14:11:04.760Z,6.99
2019-02-08T14:13:31.415Z,6.94
2019-02-08T14:15:57.933Z,6.97
2019-02-08T14:18:24.389Z,6.97
2019-02-08T14:20:50.828Z,6.97
2019-02-08T14:23:17.626Z,6.95
2019-02-08T14:25:44.123Z,6.88
2019-02-08T14:28:10.621Z,6.85
2019-02-08T14:30:38.572Z,6.86
2019-02-08T14:33:05.183Z,6.84
2019-02-08T14:35:31.794Z,6.81
2019-02-08T14:37:59.487Z,6.79
2019-02-08T14:40:26.080Z,6.77
2019-02-08T14:42:52.927Z,6.71
2019-02-08T14:45:20.213Z,6.72
2019-02-08T14:47:47.105Z,6.69
2019-02-08T14:50:19.693Z,6.70
2019-02-08T14:52:47.746Z,6.72
2019-02-08T14:55:14.438Z,6.78
2019-02-08T14:57:41.194Z,6.76
2019-02-08T15:00:10.977Z,6.72
2019-02-08T15:02:37.491Z,6.70
2019-02-08T15:05:04.900Z,6.72
2019-02-08T15:07:31.714Z,6.71
2019-02-08T15:09:58.482Z,6.73
2019-02-08T15:12:24.969Z,6.72
2019-02-08T15:14:51.425Z,6.70
2019-02-08T15:17:18.140Z,6.72
2019-02-08T15:19:44.725Z,6.74
2019-02-08T15:22:11.237Z,6.70
2019-02-08T15:24:37.721Z,6.70
2019-02-08T15:27:04.454Z,6.67
2019-02-08T15:29:31.553Z,6.65
2019-02-08T15:31:58.417Z,6.66
2019-02-08T15:34:24.976Z,6.61
2019-02-08T15:36:51.753Z,6.56
2019-02-08T15:39:18.572Z,6.53
2019-02-08T15:41:45.131Z,6.48
2019-02-08T15:44:11.714Z,6.44
2019-02-08T15:46:38.458Z,6.41
2019-02-08T15:49:05.302Z,6.37
2019-02-08T15:51:31.772Z,6.27
2019-02-08T15:53:58.441Z,6.19
2019-02-08T15:56:24.904Z,6.19
2019-02-08T15:58:51.414Z,6.12
2019-02-08T16:01:18.090Z,6.15
2019-02-08T16:03:44.686Z,6.18
2019-02-08T16:06:12.036Z,6.09
2019-02-08T16:08:39.357Z,6.05
2019-02-08T16:11:06.045Z,6.10
2019-02-08T16:13:34.605Z,6.17
2019-02-08T16:16:01.187Z,6.15
2019-02-08T16:18:27.650Z,6.13
2019-02-08T16:20:54.341Z,6.10
2019-02-08T16:23:21.224Z,6.12
2019-02-08T16:25:47.727Z,6.12
2019-02-08T16:28:15.229Z,6.10
2019-02-08T16:30:41.711Z,6.09
2019-02-08T16:33:08.923Z,6.10
2019-02-08T16:35:35.718Z,6.12
2019-02-08T16:38:02.339Z,6.08
2019-02-08T16:40:28.939Z,6.01
2019-02-08T16:42:55.412Z,5.97
2019-02-08T16:45:25.252Z,6.02
2019-02-08T16:47:52.974Z,6.01
2019-02-08T16:50:23.509Z,5.98
2019-02-08T16:52:50.204Z,5.99
2019-02-08T16:55:17.698Z,5.99
2019-02-08T16:57:47.859Z,6.01
2019-02-08T17:00:17.241Z,6.05
2019-02-08T17:02:45.229Z,6.00
2019-02-08T17:05:13.012Z,5.98
2019-02-08T17:07:39.472Z,5.93
2019-02-08T17:10:07.326Z,5.97
2019-02-08T17:12:33.815Z,5.98
2019-02-08T17:15:04.181Z,5.98
2019-02-08T17:17:30.870Z,5.99
2019-02-08T17:19:57.622Z,5.96
2019-02-08T17:22:24.410Z,6.02
2019-02-08T17:24:51.196Z,5.98
2019-02-08T17:27:17.646Z,5.98
2019-02-08T17:29:46.883Z,6.08
2019-02-08T17:32:15.389Z,5.97
2019-02-08T17:34:42.092Z,5.92
2019-02-08T17:37:08.645Z,5.88
2019-02-08T17:39:41.565Z,5.87
2019-02-08T17:42:08.121Z,5.94
2019-02-08T17:44:34.883Z,5.94
2019-02-08T17:47:01.665Z,5.91
2019-02-08T17:49:28.832Z,5.88
2019-02-08T17:51:55.335Z,5.88
2019-02-08T17:54:25.812Z,5.85
2019-02-08T17:56:51.323Z,5.94
2019-02-08T17:59:18.153Z,5.96
2019-02-08T18:01:44.643Z,5.93
2019-02-08T18:04:11.101Z,5.91
2019-02-08T18:06:37.684Z,6.00
2019-02-08T18:09:06.764Z,6.05
2019-02-08T18:11:33.309Z,6.05
2019-02-08T18:13:59.846Z,6.06
2019-02-08T18:16:27.461Z,6.03
2019-02-08T18:18:53.965Z,5.99
2019-02-08T18:21:20.442Z,6.04
2019-02-08T18:23:47.050Z,6.06
2019-02-08T18:26:13.547Z,6.11
2019-02-08T18:28:40.055Z,6.14
2019-02-08T18:31:06.521Z,6.18
2019-02-08T18:33:33.269Z,6.18
2019-02-08T18:35:59.803Z,6.22
2019-02-08T18:38:26.256Z,6.21
2019-02-08T18:40:52.751Z,6.21
2019-02-08T18:43:19.330Z,6.29
2019-02-08T18:45:46.342Z,6.26
2019-02-08T18:48:13.175Z,6.21
2019-02-08T18:50:42.231Z,6.16
2019-02-08T18:53:08.942Z,6.15
2019-02-08T18:55:35.422Z,6.12
2019-02-08T18:58:02.097Z,6.05
2019-02-08T19:00:40.395Z,6.02
2019-02-08T19:03:09.577Z,6.02
2019-02-08T19:05:36.265Z,6.01
2019-02-08T19:08:04.013Z,5.93
2019-02-08T19:10:31.634Z,5.94
2019-02-08T19:12:59.453Z,5.97
2019-02-08T19:15:26.064Z,5.99
2019-02-08T19:17:52.837Z,5.99
2019-02-08T19:20:20.835Z,5.87
2019-02-08T19:22:47.936Z,5.89
2019-02-08T19:25:19.845Z,5.84
2019-02-08T19:27:46.906Z,5.81
2019-02-08T19:30:21.581Z,5.80
2019-02-08T19:32:48.534Z,5.86
2019-02-08T19:35:15.260Z,5.79
2019-02-08T19:37:43.138Z,5.78
2019-02-08T19:40:13.775Z,5.75
2019-02-08T19:42:47.564Z,5.75
2019-02-08T19:45:15.042Z,5.72
2019-02-08T19:47:41.867Z,5.73
2019-02-08T19:50:24.076Z,5.72
2019-02-08T19:52:51.052Z,5.70
2019-02-08T19:55:17.668Z,5.68
2019-02-08T19:57:44.398Z,5.67
2019-02-08T20:00:13.746Z,5.61
2019-02-08T20:02:40.528Z,5.66
2019-02-08T20:05:11.778Z,5.64
2019-02-08T20:07:38.536Z,5.66
2019-02-08T20:10:08.282Z,5.64
2019-02-08T20:12:35.595Z,5.64
2019-02-08T20:15:02.624Z,5.63
2019-02-08T20:17:30.962Z,5.60
2019-02-08T20:19:57.805Z,5.59
2019-02-08T20:22:26.177Z,5.57
2019-02-08T20:24:53.250Z,5.55
2019-02-08T20:27:20.968Z,5.56
2019-02-08T20:29:48.234Z,5.48
2019-02-08T20:32:15.018Z,5.46
2019-02-08T20:34:41.802Z,5.52
2019-02-08T20:37:08.530Z,5.50
2019-02-08T20:39:35.307Z,5.44
2019-02-08T20:42:01.894Z,5.43
2019-02-08T20:44:28.756Z,5.41
2019-02-08T20:46:55.765Z,5.40
2019-02-08T20:49:22.801Z,5.41
2019-02-08T20:51:50.427Z,5.44
2019-02-08T20:54:19.156Z,5.39
2019-02-08T20:56:49.371Z,5.36
2019-02-08T20:59:16.247Z,5.32
2019-02-08T21:01:43.047Z,5.35
2019-02-08T21:04:10.323Z,5.28
2019-02-08T21:06:36.882Z,5.27
2019-02-08T21:09:11.314Z,5.32
2019-02-08T21:11:37.860Z,5.38
2019-02-08T21:14:05.655Z,5.38
2019-02-08T21:16:32.392Z,5.44
2019-02-08T21:18:59.004Z,5.45
2019-02-08T21:21:25.559Z,5.39
2019-02-08T21:23:52.577Z,5.34
2019-02-08T21:26:19.164Z,5.34
2019-02-08T21:28:45.700Z,5.35
2019-02-08T21:31:12.651Z,5.39
2019-02-08T21:33:45.830Z,5.34
2019-02-08T21:36:12.381Z,5.39
2019-02-08T21:38:40.928Z,5.39
2019-02-08T21:41:07.945Z,5.35
2019-02-08T21:43:35.854Z,5.40
2019-02-08T21:46:03.837Z,5.38
2019-02-08T21:48:30.363Z,5.35
2019-02-08T21:50:56.968Z,5.38
2019-02-08T21:53:25.029Z,5.43
2019-02-08T21:55:57.531Z,5.52
2019-02-08T21:58:24.046Z,5.55
2019-02-08T22:00:51.779Z,5.55
2019-02-08T22:03:18.824Z,5.59
2019-02-08T22:05:57.610Z,5.60
2019-02-08T22:08:24.527Z,5.59
2019-02-08T22:10:51.432Z,5.59
2019-02-08T22:13:18.529Z,5.56
2019-02-08T22:15:45.325Z,5.61
2019-02-08T22:18:12.032Z,5.52
2019-02-08T22:20:38.677Z,5.58
2019-02-08T22:23:05.505Z,5.54
2019-02-08T22:25:32.184Z,5.49
2019-02-08T22:27:58.953Z,5.45
2019-02-08T22:30:25.529Z,5.45
2019-02-08T22:32:53.702Z,5.50
2019-02-08T22:35:22.033Z,5.58
2019-02-08T22:37:48.958Z,5.56
2019-02-08T22:40:17.846Z,5.55
2019-02-08T22:42:44.666Z,5.47
2019-02-08T22:45:14.597Z,5.48
2019-02-08T22:47:41.380Z,5.53
2019-02-08T22:50:09.097Z,5.62
2019-02-08T22:52:35.735Z,5.55
2019-02-08T22:55:03.179Z,5.59
2019-02-08T22:57:30.279Z,5.59
2019-02-08T22:59:56.782Z,5.64
2019-02-08T23:02:23.374Z,5.70
2019-02-08T23:04:50.347Z,5.66
2019-02-08T23:07:16.954Z,5.68
2019-02-08T23:09:43.794Z,5.67
2019-02-08T23:12:11.148Z,5.61
2019-02-08T23:14:38.078Z,5.59
2019-02-08T23:17:05.607Z,5.59
2019-02-08T23:19:33.079Z,5.69
2019-02-08T23:21:59.799Z,5.71
2019-02-08T23:24:26.270Z,5.60
2019-02-08T23:26:52.793Z,5.57
2019-02-08T23:29:19.371Z,5.68
2019-02-08T23:31:45.859Z,5.70
2019-02-08T23:34:12.560Z,5.72
2019-02-08T23:36:39.099Z,5.72
2019-02-08T23:39:10.599Z,5.74
2019-02-08T23:41:37.061Z,5.80
2019-02-08T23:44:03.616Z,5.79
2019-02-08T23:46:30.144Z,5.74
2019-02-08T23:48:56.933Z,5.79
2019-02-08T23:51:23.688Z,5.72
2019-02-08T23:53:50.572Z,5.70
2019-02-08T23:56:17.488Z,5.70
2019-02-08T23:58:44.535Z,5.61
